sensor_id;sensor_type;location;lat;lon;timestamp;P1;durP1;ratioP1;P2;durP2;ratioP2
6442;SDS011;3254;47.372;8.512;2023-03-21T00:01:55;5.07;;;4.67;;
6442;SDS011;3254;47.372;8.512;2023-03-21T00:04:24;6.60;;;5.70;;
6442;SDS011;3254;47.372;8.512;2023-03-21T00:06:51;8.60;;;6.07;;
6442;SDS011;3254;47.372;8.512;2023-03-21T00:09:17;4.33;;;3.87;;
6442;SDS011;3254;47.372;8.512;2023-03-21T00:11:44;3.27;;;3.00;;
6442;SDS011;3254;47.372;8.512;2023-03-21T00:14:09;3.70;;;3.50;;
6442;SDS011;3254;47.372;8.512;2023-03-21T00:16:38;4.13;;;3.43;;
6442;SDS011;3254;47.372;8.512;2023-03-21T00:19:04;3.50;;;3.30;;
6442;SDS011;3254;47.372;8.512;2023-03-21T00:21:30;3.13;;;2.93;;
6442;SDS011;3254;47.372;8.512;2023-03-21T00:23:58;3.10;;;2.80;;
6442;SDS011;3254;47.372;8.512;2023-03-21T00:26:24;3.00;;;2.90;;
6442;SDS011;3254;47.372;8.512;2023-03-21T00:28:50;3.03;;;2.83;;
6442;SDS011;3254;47.372;8.512;2023-03-21T00:31:16;3.13;;;2.93;;
6442;SDS011;3254;47.372;8.512;2023-03-21T00:33:42;5.00;;;4.13;;
6442;SDS011;3254;47.372;8.512;2023-03-21T00:36:08;6.47;;;4.10;;
6442;SDS011;3254;47.372;8.512;2023-03-21T00:38:35;3.80;;;3.40;;
6442;SDS011;3254;47.372;8.512;2023-03-21T00:41:06;4.45;;;2.55;;
6442;SDS011;3254;47.372;8.512;2023-03-21T00:43:33;3.78;;;3.25;;
6442;SDS011;3254;47.372;8.512;2023-03-21T00:45:59;3.63;;;3.33;;
6442;SDS011;3254;47.372;8.512;2023-03-21T00:48:25;4.70;;;3.17;;
6442;SDS011;3254;47.372;8.512;2023-03-21T00:50:52;5.88;;;2.85;;
6442;SDS011;3254;47.372;8.512;2023-03-21T00:53:19;3.10;;;2.90;;
6442;SDS011;3254;47.372;8.512;2023-03-21T00:55:45;2.90;;;2.70;;
6442;SDS011;3254;47.372;8.512;2023-03-21T00:58:11;3.35;;;3.03;;
6442;SDS011;3254;47.372;8.512;2023-03-21T01:00:37;5.03;;;2.90;;
6442;SDS011;3254;47.372;8.512;2023-03-21T01:03:03;3.30;;;2.33;;
6442;SDS011;3254;47.372;8.512;2023-03-21T01:05:32;3.08;;;2.88;;
6442;SDS011;3254;47.372;8.512;2023-03-21T01:08:19;4.55;;;3.10;;
6442;SDS011;3254;47.372;8.512;2023-03-21T01:10:46;6.65;;;3.05;;
6442;SDS011;3254;47.372;8.512;2023-03-21T01:13:14;5.43;;;2.90;;
6442;SDS011;3254;47.372;8.512;2023-03-21T01:15:44;3.53;;;3.22;;
6442;SDS011;3254;47.372;8.512;2023-03-21T01:18:12;2.42;;;2.33;;
6442;SDS011;3254;47.372;8.512;2023-03-21T01:20:39;3.10;;;2.80;;
6442;SDS011;3254;47.372;8.512;2023-03-21T01:23:06;2.60;;;2.40;;
6442;SDS011;3254;47.372;8.512;2023-03-21T01:25:32;2.75;;;2.55;;
6442;SDS011;3254;47.372;8.512;2023-03-21T01:27:58;5.07;;;2.63;;
6442;SDS011;3254;47.372;8.512;2023-03-21T01:30:24;3.70;;;2.50;;
6442;SDS011;3254;47.372;8.512;2023-03-21T01:32:50;7.60;;;2.90;;
6442;SDS011;3254;47.372;8.512;2023-03-21T01:35:16;3.22;;;3.00;;
6442;SDS011;3254;47.372;8.512;2023-03-21T01:37:42;2.77;;;2.57;;
6442;SDS011;3254;47.372;8.512;2023-03-21T01:40:10;3.77;;;3.13;;
6442;SDS011;3254;47.372;8.512;2023-03-21T01:42:42;2.95;;;2.75;;
6442;SDS011;3254;47.372;8.512;2023-03-21T01:48:12;3.65;;;3.45;;
6442;SDS011;3254;47.372;8.512;2023-03-21T01:50:38;5.53;;;3.50;;
6442;SDS011;3254;47.372;8.512;2023-03-21T01:53:04;3.45;;;3.25;;
6442;SDS011;3254;47.372;8.512;2023-03-21T01:55:31;2.92;;;2.83;;
6442;SDS011;3254;47.372;8.512;2023-03-21T01:57:57;3.95;;;3.60;;
6442;SDS011;3254;47.372;8.512;2023-03-21T02:00:24;4.68;;;3.15;;
6442;SDS011;3254;47.372;8.512;2023-03-21T02:02:53;3.15;;;2.95;;
6442;SDS011;3254;47.372;8.512;2023-03-21T02:05:27;5.05;;;3.40;;
6442;SDS011;3254;47.372;8.512;2023-03-21T02:08:01;3.30;;;3.10;;
6442;SDS011;3254;47.372;8.512;2023-03-21T02:10:27;3.73;;;3.43;;
6442;SDS011;3254;47.372;8.512;2023-03-21T02:12:55;7.22;;;3.90;;
6442;SDS011;3254;47.372;8.512;2023-03-21T02:15:22;4.70;;;4.30;;
6442;SDS011;3254;47.372;8.512;2023-03-21T02:18:02;4.43;;;3.60;;
6442;SDS011;3254;47.372;8.512;2023-03-21T02:20:56;3.42;;;3.33;;
6442;SDS011;3254;47.372;8.512;2023-03-21T02:26:55;4.78;;;4.40;;
6442;SDS011;3254;47.372;8.512;2023-03-21T02:29:42;4.22;;;3.92;;
6442;SDS011;3254;47.372;8.512;2023-03-21T02:38:16;4.75;;;4.35;;
6442;SDS011;3254;47.372;8.512;2023-03-21T02:41:02;4.40;;;4.03;;
6442;SDS011;3254;47.372;8.512;2023-03-21T02:43:36;4.57;;;4.25;;
6442;SDS011;3254;47.372;8.512;2023-03-21T02:46:27;4.80;;;4.40;;
6442;SDS011;3254;47.372;8.512;2023-03-21T02:49:19;5.30;;;4.80;;
6442;SDS011;3254;47.372;8.512;2023-03-21T02:51:58;4.40;;;4.05;;
6442;SDS011;3254;47.372;8.512;2023-03-21T02:54:26;5.55;;;4.60;;
6442;SDS011;3254;47.372;8.512;2023-03-21T02:56:54;5.40;;;4.78;;
6442;SDS011;3254;47.372;8.512;2023-03-21T02:59:22;4.35;;;4.15;;
6442;SDS011;3254;47.372;8.512;2023-03-21T03:01:53;8.85;;;4.40;;
6442;SDS011;3254;47.372;8.512;2023-03-21T03:04:20;6.47;;;5.35;;
6442;SDS011;3254;47.372;8.512;2023-03-21T03:06:55;6.43;;;5.63;;
6442;SDS011;3254;47.372;8.512;2023-03-21T03:12:46;5.55;;;5.00;;
6442;SDS011;3254;47.372;8.512;2023-03-21T03:15:29;6.22;;;5.32;;
6442;SDS011;3254;47.372;8.512;2023-03-21T03:18:11;5.50;;;4.95;;
6442;SDS011;3254;47.372;8.512;2023-03-21T03:20:51;4.90;;;4.60;;
6442;SDS011;3254;47.372;8.512;2023-03-21T03:23:47;5.85;;;5.35;;
6442;SDS011;3254;47.372;8.512;2023-03-21T03:26:18;7.43;;;4.97;;
6442;SDS011;3254;47.372;8.512;2023-03-21T03:28:51;6.50;;;5.78;;
6442;SDS011;3254;47.372;8.512;2023-03-21T03:31:22;5.57;;;5.15;;
6442;SDS011;3254;47.372;8.512;2023-03-21T03:33:51;5.35;;;5.05;;
6442;SDS011;3254;47.372;8.512;2023-03-21T03:36:21;5.80;;;5.40;;
6442;SDS011;3254;47.372;8.512;2023-03-21T03:38:51;4.70;;;4.40;;
6442;SDS011;3254;47.372;8.512;2023-03-21T03:41:20;6.07;;;5.50;;
6442;SDS011;3254;47.372;8.512;2023-03-21T03:43:52;8.07;;;5.78;;
6442;SDS011;3254;47.372;8.512;2023-03-21T03:46:23;6.55;;;4.32;;
6442;SDS011;3254;47.372;8.512;2023-03-21T03:48:59;5.13;;;4.72;;
6442;SDS011;3254;47.372;8.512;2023-03-21T03:51:37;4.88;;;4.43;;
6442;SDS011;3254;47.372;8.512;2023-03-21T03:54:10;5.88;;;5.40;;
6442;SDS011;3254;47.372;8.512;2023-03-21T03:56:38;5.30;;;4.80;;
6442;SDS011;3254;47.372;8.512;2023-03-21T03:59:04;5.18;;;4.78;;
6442;SDS011;3254;47.372;8.512;2023-03-21T04:01:32;7.40;;;5.50;;
6442;SDS011;3254;47.372;8.512;2023-03-21T04:03:58;9.20;;;5.55;;
6442;SDS011;3254;47.372;8.512;2023-03-21T04:06:25;5.60;;;5.20;;
6442;SDS011;3254;47.372;8.512;2023-03-21T04:08:53;8.77;;;5.45;;
6442;SDS011;3254;47.372;8.512;2023-03-21T04:11:20;7.38;;;6.60;;
6442;SDS011;3254;47.372;8.512;2023-03-21T04:13:46;7.17;;;5.40;;
6442;SDS011;3254;47.372;8.512;2023-03-21T04:16:12;5.30;;;4.80;;
6442;SDS011;3254;47.372;8.512;2023-03-21T04:18:38;5.38;;;5.03;;
6442;SDS011;3254;47.372;8.512;2023-03-21T04:21:10;6.28;;;5.10;;
6442;SDS011;3254;47.372;8.512;2023-03-21T04:23:37;6.25;;;5.68;;
6442;SDS011;3254;47.372;8.512;2023-03-21T04:26:04;6.55;;;5.95;;
6442;SDS011;3254;47.372;8.512;2023-03-21T04:28:30;6.38;;;5.65;;
6442;SDS011;3254;47.372;8.512;2023-03-21T04:30:57;6.15;;;5.35;;
6442;SDS011;3254;47.372;8.512;2023-03-21T04:33:23;13.13;;;6.03;;
6442;SDS011;3254;47.372;8.512;2023-03-21T04:35:50;6.10;;;5.50;;
6442;SDS011;3254;47.372;8.512;2023-03-21T04:38:20;5.70;;;5.20;;
6442;SDS011;3254;47.372;8.512;2023-03-21T04:40:47;6.30;;;5.32;;
6442;SDS011;3254;47.372;8.512;2023-03-21T04:43:12;7.57;;;5.90;;
6442;SDS011;3254;47.372;8.512;2023-03-21T04:45:38;5.90;;;5.50;;
6442;SDS011;3254;47.372;8.512;2023-03-21T04:48:04;4.80;;;4.50;;
6442;SDS011;3254;47.372;8.512;2023-03-21T04:50:29;7.63;;;6.07;;
6442;SDS011;3254;47.372;8.512;2023-03-21T04:52:56;6.05;;;5.60;;
6442;SDS011;3254;47.372;8.512;2023-03-21T04:55:22;7.53;;;5.40;;
6442;SDS011;3254;47.372;8.512;2023-03-21T04:57:49;9.95;;;6.70;;
6442;SDS011;3254;47.372;8.512;2023-03-21T05:00:15;6.30;;;5.60;;
6442;SDS011;3254;47.372;8.512;2023-03-21T05:02:41;17.50;;;5.53;;
6442;SDS011;3254;47.372;8.512;2023-03-21T05:05:07;7.27;;;6.40;;
6442;SDS011;3254;47.372;8.512;2023-03-21T05:07:35;6.07;;;5.57;;
6442;SDS011;3254;47.372;8.512;2023-03-21T05:10:05;11.02;;;5.50;;
6442;SDS011;3254;47.372;8.512;2023-03-21T05:12:32;7.72;;;6.95;;
6442;SDS011;3254;47.372;8.512;2023-03-21T05:14:58;8.30;;;6.30;;
6442;SDS011;3254;47.372;8.512;2023-03-21T05:17:24;7.37;;;6.20;;
6442;SDS011;3254;47.372;8.512;2023-03-21T05:19:52;9.45;;;7.05;;
6442;SDS011;3254;47.372;8.512;2023-03-21T05:22:20;7.85;;;7.05;;
6442;SDS011;3254;47.372;8.512;2023-03-21T05:24:48;8.40;;;7.60;;
6442;SDS011;3254;47.372;8.512;2023-03-21T05:27:18;10.40;;;7.10;;
6442;SDS011;3254;47.372;8.512;2023-03-21T05:30:14;9.35;;;7.10;;
6442;SDS011;3254;47.372;8.512;2023-03-21T05:32:41;8.95;;;8.00;;
6442;SDS011;3254;47.372;8.512;2023-03-21T05:35:07;15.10;;;8.53;;
6442;SDS011;3254;47.372;8.512;2023-03-21T05:37:33;11.57;;;8.15;;
6442;SDS011;3254;47.372;8.512;2023-03-21T05:39:59;11.53;;;7.87;;
6442;SDS011;3254;47.372;8.512;2023-03-21T05:42:25;10.13;;;7.33;;
6442;SDS011;3254;47.372;8.512;2023-03-21T05:44:50;11.18;;;7.95;;
6442;SDS011;3254;47.372;8.512;2023-03-21T05:47:16;15.17;;;10.73;;
6442;SDS011;3254;47.372;8.512;2023-03-21T05:49:43;10.65;;;8.52;;
6442;SDS011;3254;47.372;8.512;2023-03-21T05:52:09;7.88;;;7.07;;
6442;SDS011;3254;47.372;8.512;2023-03-21T05:54:35;7.70;;;6.83;;
6442;SDS011;3254;47.372;8.512;2023-03-21T05:57:02;10.13;;;8.00;;
6442;SDS011;3254;47.372;8.512;2023-03-21T05:59:28;9.02;;;6.68;;
6442;SDS011;3254;47.372;8.512;2023-03-21T06:01:53;8.63;;;6.87;;
6442;SDS011;3254;47.372;8.512;2023-03-21T06:04:19;12.03;;;6.97;;
6442;SDS011;3254;47.372;8.512;2023-03-21T06:06:45;7.13;;;6.30;;
6442;SDS011;3254;47.372;8.512;2023-03-21T06:09:10;6.80;;;6.20;;
6442;SDS011;3254;47.372;8.512;2023-03-21T06:11:37;7.47;;;6.70;;
6442;SDS011;3254;47.372;8.512;2023-03-21T06:14:06;10.70;;;6.80;;
6442;SDS011;3254;47.372;8.512;2023-03-21T06:16:31;8.83;;;7.20;;
6442;SDS011;3254;47.372;8.512;2023-03-21T06:18:57;9.40;;;7.70;;
6442;SDS011;3254;47.372;8.512;2023-03-21T06:21:22;9.90;;;8.07;;
6442;SDS011;3254;47.372;8.512;2023-03-21T06:23:48;10.70;;;7.80;;
6442;SDS011;3254;47.372;8.512;2023-03-21T06:26:16;7.68;;;6.72;;
6442;SDS011;3254;47.372;8.512;2023-03-21T06:28:43;7.50;;;6.90;;
6442;SDS011;3254;47.372;8.512;2023-03-21T06:31:09;8.57;;;7.77;;
6442;SDS011;3254;47.372;8.512;2023-03-21T06:33:35;9.40;;;7.33;;
6442;SDS011;3254;47.372;8.512;2023-03-21T06:36:00;10.87;;;7.70;;
6442;SDS011;3254;47.372;8.512;2023-03-21T06:38:26;16.23;;;7.33;;
6442;SDS011;3254;47.372;8.512;2023-03-21T06:40:51;9.13;;;8.10;;
6442;SDS011;3254;47.372;8.512;2023-03-21T06:43:17;9.27;;;8.37;;
6442;SDS011;3254;47.372;8.512;2023-03-21T06:45:43;12.37;;;8.73;;
6442;SDS011;3254;47.372;8.512;2023-03-21T06:48:09;16.83;;;8.10;;
6442;SDS011;3254;47.372;8.512;2023-03-21T06:50:35;9.27;;;8.17;;
6442;SDS011;3254;47.372;8.512;2023-03-21T06:53:00;9.37;;;8.40;;
6442;SDS011;3254;47.372;8.512;2023-03-21T06:55:26;10.77;;;8.10;;
6442;SDS011;3254;47.372;8.512;2023-03-21T06:57:53;20.95;;;8.25;;
6442;SDS011;3254;47.372;8.512;2023-03-21T07:00:20;8.82;;;7.90;;
6442;SDS011;3254;47.372;8.512;2023-03-21T07:02:46;9.82;;;8.00;;
6442;SDS011;3254;47.372;8.512;2023-03-21T07:05:12;9.77;;;8.10;;
6442;SDS011;3254;47.372;8.512;2023-03-21T07:07:38;10.23;;;7.60;;
6442;SDS011;3254;47.372;8.512;2023-03-21T07:10:05;10.93;;;7.60;;
6442;SDS011;3254;47.372;8.512;2023-03-21T07:12:31;8.00;;;7.20;;
6442;SDS011;3254;47.372;8.512;2023-03-21T07:14:58;11.38;;;7.82;;
6442;SDS011;3254;47.372;8.512;2023-03-21T07:17:24;11.48;;;7.03;;
6442;SDS011;3254;47.372;8.512;2023-03-21T07:19:50;9.83;;;6.70;;
6442;SDS011;3254;47.372;8.512;2023-03-21T07:22:16;11.10;;;8.10;;
6442;SDS011;3254;47.372;8.512;2023-03-21T07:24:41;13.10;;;8.10;;
6442;SDS011;3254;47.372;8.512;2023-03-21T07:27:07;7.80;;;6.90;;
6442;SDS011;3254;47.372;8.512;2023-03-21T07:29:33;12.40;;;7.53;;
6442;SDS011;3254;47.372;8.512;2023-03-21T07:31:58;7.93;;;6.90;;
6442;SDS011;3254;47.372;8.512;2023-03-21T07:34:24;7.43;;;6.73;;
6442;SDS011;3254;47.372;8.512;2023-03-21T07:36:51;9.10;;;6.37;;
6442;SDS011;3254;47.372;8.512;2023-03-21T07:39:16;17.00;;;7.97;;
6442;SDS011;3254;47.372;8.512;2023-03-21T07:41:44;6.87;;;6.37;;
6442;SDS011;3254;47.372;8.512;2023-03-21T07:44:10;9.30;;;7.10;;
6442;SDS011;3254;47.372;8.512;2023-03-21T07:46:35;8.83;;;5.20;;
6442;SDS011;3254;47.372;8.512;2023-03-21T07:49:01;7.80;;;4.97;;
6442;SDS011;3254;47.372;8.512;2023-03-21T07:51:26;5.57;;;5.13;;
6442;SDS011;3254;47.372;8.512;2023-03-21T07:53:52;5.33;;;4.90;;
6442;SDS011;3254;47.372;8.512;2023-03-21T07:56:17;4.37;;;4.07;;
6442;SDS011;3254;47.372;8.512;2023-03-21T07:58:43;4.50;;;4.20;;
6442;SDS011;3254;47.372;8.512;2023-03-21T08:01:09;9.00;;;4.10;;
6442;SDS011;3254;47.372;8.512;2023-03-21T08:03:34;4.30;;;3.90;;
6442;SDS011;3254;47.372;8.512;2023-03-21T08:06:00;4.13;;;3.07;;
6442;SDS011;3254;47.372;8.512;2023-03-21T08:08:26;3.87;;;3.53;;
6442;SDS011;3254;47.372;8.512;2023-03-21T08:10:51;3.97;;;3.67;;
6442;SDS011;3254;47.372;8.512;2023-03-21T08:13:17;3.87;;;3.50;;
6442;SDS011;3254;47.372;8.512;2023-03-21T08:15:42;3.40;;;3.10;;
6442;SDS011;3254;47.372;8.512;2023-03-21T08:18:08;3.80;;;3.60;;
6442;SDS011;3254;47.372;8.512;2023-03-21T08:20:35;3.10;;;3.00;;
6442;SDS011;3254;47.372;8.512;2023-03-21T08:23:01;3.80;;;3.50;;
6442;SDS011;3254;47.372;8.512;2023-03-21T08:25:26;4.03;;;3.50;;
6442;SDS011;3254;47.372;8.512;2023-03-21T08:27:52;5.23;;;4.00;;
6442;SDS011;3254;47.372;8.512;2023-03-21T08:30:19;3.03;;;2.77;;
6442;SDS011;3254;47.372;8.512;2023-03-21T08:32:45;2.93;;;2.83;;
6442;SDS011;3254;47.372;8.512;2023-03-21T08:35:12;3.50;;;3.30;;
6442;SDS011;3254;47.372;8.512;2023-03-21T08:37:40;3.53;;;3.20;;
6442;SDS011;3254;47.372;8.512;2023-03-21T08:40:11;4.20;;;3.90;;
6442;SDS011;3254;47.372;8.512;2023-03-21T08:42:41;3.80;;;3.60;;
6442;SDS011;3254;47.372;8.512;2023-03-21T08:45:08;3.20;;;3.00;;
6442;SDS011;3254;47.372;8.512;2023-03-21T08:47:34;3.90;;;3.70;;
6442;SDS011;3254;47.372;8.512;2023-03-21T08:50:00;43.27;;;4.63;;
6442;SDS011;3254;47.372;8.512;2023-03-21T08:52:26;3.57;;;3.23;;
6442;SDS011;3254;47.372;8.512;2023-03-21T08:54:52;4.87;;;4.47;;
6442;SDS011;3254;47.372;8.512;2023-03-21T08:57:18;9.57;;;4.40;;
6442;SDS011;3254;47.372;8.512;2023-03-21T08:59:43;4.17;;;3.90;;
6442;SDS011;3254;47.372;8.512;2023-03-21T09:02:10;3.87;;;3.67;;
6442;SDS011;3254;47.372;8.512;2023-03-21T09:04:38;3.77;;;3.57;;
6442;SDS011;3254;47.372;8.512;2023-03-21T09:07:04;8.60;;;3.87;;
6442;SDS011;3254;47.372;8.512;2023-03-21T09:09:30;3.47;;;3.20;;
6442;SDS011;3254;47.372;8.512;2023-03-21T09:11:56;3.80;;;3.50;;
6442;SDS011;3254;47.372;8.512;2023-03-21T09:14:22;5.17;;;3.43;;
6442;SDS011;3254;47.372;8.512;2023-03-21T09:16:47;4.57;;;3.63;;
6442;SDS011;3254;47.372;8.512;2023-03-21T09:19:14;4.33;;;4.00;;
6442;SDS011;3254;47.372;8.512;2023-03-21T09:21:40;4.30;;;3.80;;
6442;SDS011;3254;47.372;8.512;2023-03-21T09:24:05;3.77;;;3.57;;
6442;SDS011;3254;47.372;8.512;2023-03-21T09:26:32;6.73;;;3.53;;
6442;SDS011;3254;47.372;8.512;2023-03-21T09:28:57;3.30;;;3.10;;
6442;SDS011;3254;47.372;8.512;2023-03-21T09:31:24;3.30;;;3.00;;
6442;SDS011;3254;47.372;8.512;2023-03-21T09:33:52;3.20;;;3.00;;
6442;SDS011;3254;47.372;8.512;2023-03-21T09:36:19;3.80;;;3.60;;
6442;SDS011;3254;47.372;8.512;2023-03-21T09:38:46;3.77;;;3.47;;
6442;SDS011;3254;47.372;8.512;2023-03-21T09:47:17;5.50;;;4.40;;
6442;SDS011;3254;47.372;8.512;2023-03-21T09:50:03;5.13;;;3.40;;
6442;SDS011;3254;47.372;8.512;2023-03-21T09:55:16;3.10;;;2.90;;
6442;SDS011;3254;47.372;8.512;2023-03-21T09:57:46;2.67;;;2.50;;
6442;SDS011;3254;47.372;8.512;2023-03-21T10:00:23;8.83;;;2.70;;
6442;SDS011;3254;47.372;8.512;2023-03-21T10:03:02;2.70;;;2.50;;
6442;SDS011;3254;47.372;8.512;2023-03-21T10:05:31;2.53;;;2.40;;
6442;SDS011;3254;47.372;8.512;2023-03-21T10:08:08;9.33;;;3.40;;
6442;SDS011;3254;47.372;8.512;2023-03-21T10:10:54;3.27;;;3.07;;
6442;SDS011;3254;47.372;8.512;2023-03-21T10:13:26;3.47;;;3.30;;
6442;SDS011;3254;47.372;8.512;2023-03-21T10:15:57;4.40;;;3.20;;
6442;SDS011;3254;47.372;8.512;2023-03-21T10:18:44;4.20;;;2.40;;
6442;SDS011;3254;47.372;8.512;2023-03-21T10:21:15;6.00;;;3.63;;
6442;SDS011;3254;47.372;8.512;2023-03-21T10:23:46;3.60;;;3.20;;
6442;SDS011;3254;47.372;8.512;2023-03-21T10:26:15;3.50;;;3.10;;
6442;SDS011;3254;47.372;8.512;2023-03-21T10:28:42;4.03;;;3.00;;
6442;SDS011;3254;47.372;8.512;2023-03-21T10:31:12;2.67;;;2.57;;
6442;SDS011;3254;47.372;8.512;2023-03-21T10:33:42;3.50;;;3.30;;
6442;SDS011;3254;47.372;8.512;2023-03-21T10:36:10;3.13;;;3.00;;
6442;SDS011;3254;47.372;8.512;2023-03-21T10:38:43;4.73;;;3.30;;
6442;SDS011;3254;47.372;8.512;2023-03-21T10:41:29;5.60;;;3.33;;
6442;SDS011;3254;47.372;8.512;2023-03-21T10:44:07;3.93;;;3.40;;
6442;SDS011;3254;47.372;8.512;2023-03-21T10:46:35;3.50;;;3.40;;
6442;SDS011;3254;47.372;8.512;2023-03-21T10:49:02;3.87;;;2.73;;
6442;SDS011;3254;47.372;8.512;2023-03-21T10:51:29;2.90;;;2.70;;
6442;SDS011;3254;47.372;8.512;2023-03-21T10:53:58;3.20;;;3.00;;
6442;SDS011;3254;47.372;8.512;2023-03-21T10:56:36;7.23;;;2.73;;
6442;SDS011;3254;47.372;8.512;2023-03-21T10:59:04;3.00;;;2.80;;
6442;SDS011;3254;47.372;8.512;2023-03-21T11:01:38;3.40;;;3.10;;
6442;SDS011;3254;47.372;8.512;2023-03-21T11:04:06;6.50;;;2.70;;
6442;SDS011;3254;47.372;8.512;2023-03-21T11:06:37;3.17;;;2.97;;
6442;SDS011;3254;47.372;8.512;2023-03-21T11:09:06;2.80;;;2.70;;
6442;SDS011;3254;47.372;8.512;2023-03-21T11:11:37;2.77;;;2.53;;
6442;SDS011;3254;47.372;8.512;2023-03-21T11:14:04;3.37;;;3.17;;
6442;SDS011;3254;47.372;8.512;2023-03-21T11:16:38;2.90;;;2.80;;
6442;SDS011;3254;47.372;8.512;2023-03-21T11:19:13;3.13;;;2.93;;
6442;SDS011;3254;47.372;8.512;2023-03-21T11:21:41;3.10;;;2.90;;
6442;SDS011;3254;47.372;8.512;2023-03-21T11:24:10;7.90;;;3.80;;
6442;SDS011;3254;47.372;8.512;2023-03-21T11:26:41;3.77;;;3.20;;
6442;SDS011;3254;47.372;8.512;2023-03-21T11:29:23;3.60;;;3.30;;
6442;SDS011;3254;47.372;8.512;2023-03-21T11:31:56;3.00;;;2.90;;
6442;SDS011;3254;47.372;8.512;2023-03-21T11:34:27;3.53;;;3.23;;
6442;SDS011;3254;47.372;8.512;2023-03-21T11:36:58;2.90;;;2.80;;
6442;SDS011;3254;47.372;8.512;2023-03-21T11:39:30;3.13;;;2.83;;
6442;SDS011;3254;47.372;8.512;2023-03-21T11:42:03;5.60;;;2.33;;
6442;SDS011;3254;47.372;8.512;2023-03-21T11:44:34;2.60;;;2.50;;
6442;SDS011;3254;47.372;8.512;2023-03-21T11:47:07;3.20;;;3.00;;
6442;SDS011;3254;47.372;8.512;2023-03-21T11:49:35;5.60;;;2.43;;
6442;SDS011;3254;47.372;8.512;2023-03-21T11:55:15;4.63;;;3.20;;
6442;SDS011;3254;47.372;8.512;2023-03-21T12:00:03;2.90;;;2.80;;
6442;SDS011;3254;47.372;8.512;2023-03-21T12:05:25;2.70;;;2.50;;
6442;SDS011;3254;47.372;8.512;2023-03-21T12:07:56;2.70;;;2.60;;
6442;SDS011;3254;47.372;8.512;2023-03-21T12:16:10;3.37;;;2.77;;
6442;SDS011;3254;47.372;8.512;2023-03-21T12:21:33;7.87;;;3.00;;
6442;SDS011;3254;47.372;8.512;2023-03-21T12:24:32;6.63;;;2.77;;
6442;SDS011;3254;47.372;8.512;2023-03-21T12:30:23;11.00;;;3.53;;
6442;SDS011;3254;47.372;8.512;2023-03-21T12:33:11;3.10;;;2.60;;
6442;SDS011;3254;47.372;8.512;2023-03-21T12:40:49;2.50;;;2.40;;
6442;SDS011;3254;47.372;8.512;2023-03-21T12:43:30;7.20;;;2.83;;
6442;SDS011;3254;47.372;8.512;2023-03-21T12:46:11;2.63;;;2.37;;
6442;SDS011;3254;47.372;8.512;2023-03-21T12:48:51;2.80;;;2.40;;
6442;SDS011;3254;47.372;8.512;2023-03-21T12:51:30;2.97;;;2.80;;
6442;SDS011;3254;47.372;8.512;2023-03-21T12:56:55;2.90;;;2.30;;
6442;SDS011;3254;47.372;8.512;2023-03-21T12:59:25;2.30;;;2.20;;
6442;SDS011;3254;47.372;8.512;2023-03-21T13:01:59;1.80;;;1.70;;
6442;SDS011;3254;47.372;8.512;2023-03-21T13:04:39;8.53;;;2.10;;
6442;SDS011;3254;47.372;8.512;2023-03-21T13:07:11;10.27;;;2.40;;
6442;SDS011;3254;47.372;8.512;2023-03-21T13:09:41;7.23;;;2.37;;
6442;SDS011;3254;47.372;8.512;2023-03-21T13:15:07;2.47;;;2.37;;
6442;SDS011;3254;47.372;8.512;2023-03-21T13:20:51;8.20;;;2.27;;
6442;SDS011;3254;47.372;8.512;2023-03-21T13:23:23;2.40;;;2.30;;
6442;SDS011;3254;47.372;8.512;2023-03-21T13:25:50;11.20;;;2.40;;
6442;SDS011;3254;47.372;8.512;2023-03-21T13:28:20;8.93;;;2.57;;
6442;SDS011;3254;47.372;8.512;2023-03-21T13:30:47;5.37;;;2.37;;
6442;SDS011;3254;47.372;8.512;2023-03-21T13:33:14;7.53;;;2.43;;
6442;SDS011;3254;47.372;8.512;2023-03-21T13:36:05;3.93;;;2.10;;
6442;SDS011;3254;47.372;8.512;2023-03-21T13:38:33;2.50;;;2.30;;
6442;SDS011;3254;47.372;8.512;2023-03-21T13:43:31;2.90;;;2.70;;
6442;SDS011;3254;47.372;8.512;2023-03-21T13:56:31;2.83;;;2.63;;
6442;SDS011;3254;47.372;8.512;2023-03-21T13:59:10;2.93;;;2.73;;
6442;SDS011;3254;47.372;8.512;2023-03-21T14:01:44;2.67;;;2.57;;
6442;SDS011;3254;47.372;8.512;2023-03-21T14:04:25;2.40;;;2.30;;
6442;SDS011;3254;47.372;8.512;2023-03-21T14:06:54;2.80;;;2.67;;
6442;SDS011;3254;47.372;8.512;2023-03-21T14:09:27;3.10;;;2.90;;
6442;SDS011;3254;47.372;8.512;2023-03-21T14:11:55;6.03;;;3.37;;
6442;SDS011;3254;47.372;8.512;2023-03-21T14:14:23;3.17;;;2.70;;
6442;SDS011;3254;47.372;8.512;2023-03-21T14:17:00;7.60;;;2.87;;
6442;SDS011;3254;47.372;8.512;2023-03-21T14:19:31;3.30;;;3.10;;
6442;SDS011;3254;47.372;8.512;2023-03-21T14:21:57;6.07;;;3.10;;
6442;SDS011;3254;47.372;8.512;2023-03-21T14:24:22;2.60;;;2.50;;
6442;SDS011;3254;47.372;8.512;2023-03-21T14:26:49;6.43;;;3.10;;
6442;SDS011;3254;47.372;8.512;2023-03-21T14:29:30;3.10;;;3.00;;
6442;SDS011;3254;47.372;8.512;2023-03-21T14:31:58;3.40;;;3.20;;
6442;SDS011;3254;47.372;8.512;2023-03-21T14:34:28;3.30;;;3.10;;
6442;SDS011;3254;47.372;8.512;2023-03-21T14:36:56;4.23;;;2.70;;
6442;SDS011;3254;47.372;8.512;2023-03-21T14:39:23;5.90;;;3.00;;
6442;SDS011;3254;47.372;8.512;2023-03-21T14:41:56;3.73;;;3.53;;
6442;SDS011;3254;47.372;8.512;2023-03-21T14:44:40;3.83;;;3.03;;
6442;SDS011;3254;47.372;8.512;2023-03-21T14:47:08;2.70;;;2.60;;
6442;SDS011;3254;47.372;8.512;2023-03-21T14:49:43;3.17;;;2.97;;
6442;SDS011;3254;47.372;8.512;2023-03-21T14:52:10;3.10;;;2.90;;
6442;SDS011;3254;47.372;8.512;2023-03-21T14:54:51;3.27;;;2.80;;
6442;SDS011;3254;47.372;8.512;2023-03-21T14:57:25;2.53;;;2.43;;
6442;SDS011;3254;47.372;8.512;2023-03-21T14:59:55;3.10;;;2.50;;
6442;SDS011;3254;47.372;8.512;2023-03-21T15:02:27;3.73;;;2.60;;
6442;SDS011;3254;47.372;8.512;2023-03-21T15:04:56;2.83;;;2.63;;
6442;SDS011;3254;47.372;8.512;2023-03-21T15:07:30;3.20;;;3.00;;
6442;SDS011;3254;47.372;8.512;2023-03-21T15:09:59;2.50;;;2.30;;
6442;SDS011;3254;47.372;8.512;2023-03-21T15:12:28;6.00;;;2.80;;
6442;SDS011;3254;47.372;8.512;2023-03-21T15:14:53;6.93;;;2.30;;
6442;SDS011;3254;47.372;8.512;2023-03-21T15:17:20;4.90;;;1.90;;
6442;SDS011;3254;47.372;8.512;2023-03-21T15:19:46;4.23;;;2.63;;
6442;SDS011;3254;47.372;8.512;2023-03-21T15:22:14;2.00;;;1.90;;
6442;SDS011;3254;47.372;8.512;2023-03-21T15:24:52;2.40;;;2.20;;
6442;SDS011;3254;47.372;8.512;2023-03-21T15:27:22;2.70;;;1.80;;
6442;SDS011;3254;47.372;8.512;2023-03-21T15:29:49;4.10;;;2.37;;
6442;SDS011;3254;47.372;8.512;2023-03-21T15:32:18;5.03;;;2.33;;
6442;SDS011;3254;47.372;8.512;2023-03-21T15:34:47;4.40;;;2.07;;
6442;SDS011;3254;47.372;8.512;2023-03-21T15:37:21;9.83;;;2.40;;
6442;SDS011;3254;47.372;8.512;2023-03-21T15:39:51;3.93;;;1.70;;
6442;SDS011;3254;47.372;8.512;2023-03-21T15:42:31;2.30;;;1.90;;
6442;SDS011;3254;47.372;8.512;2023-03-21T15:45:02;1.70;;;1.60;;
6442;SDS011;3254;47.372;8.512;2023-03-21T15:47:47;2.00;;;1.80;;
6442;SDS011;3254;47.372;8.512;2023-03-21T15:50:28;3.40;;;1.40;;
6442;SDS011;3254;47.372;8.512;2023-03-21T15:53:04;1.93;;;1.50;;
6442;SDS011;3254;47.372;8.512;2023-03-21T15:58:13;8.60;;;1.87;;
6442;SDS011;3254;47.372;8.512;2023-03-21T16:00:42;6.93;;;2.87;;
6442;SDS011;3254;47.372;8.512;2023-03-21T16:03:21;2.30;;;2.10;;
6442;SDS011;3254;47.372;8.512;2023-03-21T16:06:06;3.20;;;3.00;;
6442;SDS011;3254;47.372;8.512;2023-03-21T16:08:36;4.63;;;1.97;;
6442;SDS011;3254;47.372;8.512;2023-03-21T16:13:52;6.83;;;3.17;;
6442;SDS011;3254;47.372;8.512;2023-03-21T16:16:20;2.53;;;2.33;;
6442;SDS011;3254;47.372;8.512;2023-03-21T16:18:47;2.60;;;2.40;;
6442;SDS011;3254;47.372;8.512;2023-03-21T16:21:15;2.33;;;2.13;;
6442;SDS011;3254;47.372;8.512;2023-03-21T16:23:43;5.17;;;2.73;;
6442;SDS011;3254;47.372;8.512;2023-03-21T16:26:10;2.40;;;2.30;;
6442;SDS011;3254;47.372;8.512;2023-03-21T16:28:36;6.00;;;1.87;;
6442;SDS011;3254;47.372;8.512;2023-03-21T16:31:02;7.03;;;2.33;;
6442;SDS011;3254;47.372;8.512;2023-03-21T16:33:28;6.10;;;5.07;;
6442;SDS011;3254;47.372;8.512;2023-03-21T16:35:53;2.90;;;2.60;;
6442;SDS011;3254;47.372;8.512;2023-03-21T16:38:21;4.33;;;2.60;;
6442;SDS011;3254;47.372;8.512;2023-03-21T16:40:48;4.03;;;2.30;;
6442;SDS011;3254;47.372;8.512;2023-03-21T16:43:15;2.40;;;2.20;;
6442;SDS011;3254;47.372;8.512;2023-03-21T16:45:40;14.17;;;2.93;;
6442;SDS011;3254;47.372;8.512;2023-03-21T16:48:06;7.73;;;2.60;;